createdAt,value
2017-08-11T00:00:02.796Z,0
2017-08-11T00:01:04.474Z,0
2017-08-11T00:02:06.692Z,0
2017-08-11T00:03:08.909Z,0
2017-08-11T00:04:10.506Z,0
2017-08-11T00:05:12.357Z,0
2017-08-11T00:06:14.271Z,0
2017-08-11T00:07:16.379Z,0
2017-08-11T00:08:18.317Z,0
2017-08-11T00:09:20.018Z,0
2017-08-11T00:10:21.714Z,0
2017-08-11T00:11:23.436Z,0
2017-08-11T00:12:25.417Z,0
2017-08-11T00:13:27.945Z,0
2017-08-11T00:14:29.930Z,0
2017-08-11T00:15:31.588Z,0
2017-08-11T00:16:33.410Z,0
2017-08-11T00:17:35.303Z,0
2017-08-11T00:18:37.414Z,0
2017-08-11T00:19:39.623Z,0
2017-08-11T00:20:41.961Z,0
2017-08-11T00:21:43.883Z,0
2017-08-11T00:22:45.792Z,0
2017-08-11T00:23:47.999Z,0
2017-08-11T00:24:50.309Z,0
2017-08-11T00:25:53.317Z,0
2017-08-11T00:26:55.291Z,0
2017-08-11T00:27:57.169Z,0
2017-08-11T00:28:59.148Z,0
2017-08-11T00:30:00.941Z,0
2017-08-11T00:31:02.849Z,0
2017-08-11T00:32:04.858Z,0
2017-08-11T00:33:06.909Z,0
2017-08-11T00:34:09.306Z,0
2017-08-11T00:35:11.000Z,0
2017-08-11T00:36:13.486Z,0
2017-08-11T00:37:15.293Z,0
2017-08-11T00:38:17.127Z,0
2017-08-11T00:39:19.298Z,0
2017-08-11T00:40:21.849Z,0
2017-08-11T00:41:23.887Z,0
2017-08-11T00:42:25.746Z,0
2017-08-11T00:44:09.361Z,0
2017-08-11T00:45:50.845Z,0
2017-08-11T00:47:32.283Z,0
2017-08-11T00:49:18.787Z,0
2017-08-11T00:51:00.063Z,0
2017-08-11T00:52:01.551Z,0
2017-08-11T00:53:03.142Z,0
2017-08-11T00:54:05.572Z,0
2017-08-11T00:55:08.490Z,0
2017-08-11T00:56:10.322Z,0
2017-08-11T00:57:12.846Z,0
2017-08-11T00:58:14.654Z,0
2017-08-11T00:59:16.664Z,0
2017-08-11T01:00:18.546Z,0
2017-08-11T01:01:20.307Z,0
2017-08-11T01:02:22.181Z,0
2017-08-11T01:03:24.179Z,0
2017-08-11T01:04:26.024Z,0
2017-08-11T01:05:27.824Z,0
2017-08-11T01:06:29.855Z,0
2017-08-11T01:07:31.707Z,0
2017-08-11T01:08:33.528Z,0
2017-08-11T01:09:35.208Z,0
2017-08-11T01:10:37.013Z,0
2017-08-11T01:11:38.762Z,0
2017-08-11T01:12:40.440Z,0
2017-08-11T01:13:42.769Z,0
2017-08-11T01:14:44.661Z,0
2017-08-11T01:15:47.235Z,0
2017-08-11T01:16:49.166Z,0
2017-08-11T01:17:51.632Z,0
2017-08-11T01:18:53.703Z,0
2017-08-11T01:19:56.010Z,0
2017-08-11T01:20:58.022Z,0
2017-08-11T01:22:00.596Z,0
2017-08-11T01:23:02.479Z,0
2017-08-11T01:24:04.784Z,0
2017-08-11T01:25:06.616Z,0
2017-08-11T01:26:08.365Z,0
2017-08-11T01:27:11.110Z,0
2017-08-11T01:28:12.971Z,0
2017-08-11T01:29:15.031Z,0
2017-08-11T01:30:16.964Z,0
2017-08-11T01:31:19.383Z,0
2017-08-11T01:32:21.565Z,0
2017-08-11T01:33:23.298Z,0
2017-08-11T01:34:25.320Z,0
2017-08-11T01:35:27.240Z,0
2017-08-11T01:36:29.225Z,0
2017-08-11T01:37:31.043Z,0
2017-08-11T01:38:33.149Z,0
2017-08-11T01:39:35.566Z,0
2017-08-11T01:40:37.822Z,0
2017-08-11T01:41:39.878Z,0
2017-08-11T01:42:42.378Z,0
2017-08-11T01:43:44.750Z,0
2017-08-11T01:44:46.485Z,0
2017-08-11T01:45:48.460Z,0
2017-08-11T01:46:50.196Z,0
2017-08-11T01:47:51.970Z,0
2017-08-11T01:48:53.681Z,0
2017-08-11T01:49:55.262Z,0
2017-08-11T01:50:57.038Z,0
2017-08-11T01:51:58.789Z,0
2017-08-11T01:53:00.619Z,0
2017-08-11T01:54:02.432Z,0
2017-08-11T01:55:04.884Z,0
2017-08-11T01:56:06.629Z,0
2017-08-11T01:57:08.938Z,0
2017-08-11T01:58:11.268Z,0
2017-08-11T01:59:13.521Z,0
2017-08-11T02:00:15.379Z,0
2017-08-11T02:01:17.333Z,0
2017-08-11T02:02:19.602Z,0
2017-08-11T02:03:21.594Z,0
2017-08-11T02:04:23.766Z,0
2017-08-11T02:05:26.133Z,0
2017-08-11T02:06:29.250Z,0
2017-08-11T02:07:31.287Z,0
2017-08-11T02:08:34.050Z,0
2017-08-11T02:09:35.913Z,0
2017-08-11T02:10:38.276Z,0
2017-08-11T02:11:40.643Z,0
2017-08-11T02:13:22.548Z,0
2017-08-11T02:15:04.155Z,0
2017-08-11T02:16:07.993Z,0
2017-08-11T02:17:10.568Z,0
2017-08-11T02:18:12.367Z,0
2017-08-11T02:19:14.921Z,0
2017-08-11T02:20:17.803Z,0
2017-08-11T02:21:20.324Z,0
2017-08-11T02:22:22.790Z,0
2017-08-11T02:23:25.058Z,0
2017-08-11T02:24:27.745Z,0
2017-08-11T02:25:30.255Z,0
2017-08-11T02:26:32.918Z,0
2017-08-11T02:27:35.576Z,0
2017-08-11T02:28:37.472Z,0
2017-08-11T02:29:39.081Z,0
2017-08-11T07:38:51.783Z,31616
2017-08-11T07:39:53.180Z,30880
2017-08-11T07:40:54.635Z,30272
2017-08-11T07:41:56.072Z,32064
2017-08-11T07:42:58.203Z,33408
2017-08-11T07:43:59.738Z,36640
2017-08-11T07:45:01.240Z,38496
2017-08-11T07:46:02.636Z,44352
2017-08-11T07:47:04.111Z,42048
2017-08-11T07:48:05.533Z,41696
2017-08-11T07:49:07.034Z,47552
2017-08-11T07:50:08.715Z,48704
2017-08-11T07:51:10.328Z,53472
2017-08-11T07:52:11.940Z,51488
2017-08-11T07:53:13.473Z,44544
2017-08-11T07:54:15.035Z,41312
2017-08-11T07:55:16.832Z,38848
2017-08-11T07:56:18.315Z,30656
2017-08-11T07:57:19.786Z,26528
2017-08-11T07:58:21.214Z,28544
2017-08-11T07:59:22.831Z,28832
2017-08-11T08:00:24.596Z,29376
2017-08-11T08:01:26.141Z,30720
2017-08-11T08:02:27.781Z,27744
2017-08-11T08:03:29.402Z,26976
2017-08-11T08:04:31.128Z,27552
2017-08-11T08:05:32.792Z,28896
2017-08-11T08:06:34.358Z,29024
2017-08-11T08:07:35.906Z,26016
2017-08-11T08:08:37.430Z,26240
2017-08-11T08:09:38.999Z,30336
2017-08-11T08:10:40.577Z,32896
2017-08-11T08:11:42.218Z,34688
2017-08-11T08:12:43.670Z,35424
2017-08-11T08:13:45.273Z,36352
2017-08-11T08:14:46.760Z,33184
2017-08-11T08:15:48.578Z,31104
2017-08-11T08:16:50.311Z,31808
2017-08-11T08:17:52.008Z,34912
2017-08-11T08:18:53.646Z,30848
2017-08-11T08:19:55.273Z,24896
2017-08-11T08:20:56.915Z,24160
2017-08-11T08:21:58.503Z,25472
2017-08-11T08:23:00.230Z,25536
2017-08-11T08:24:02.085Z,23584
2017-08-11T08:25:03.766Z,21952
2017-08-11T08:26:05.507Z,22112
2017-08-11T08:27:07.094Z,23328
2017-08-11T08:28:08.798Z,24064
2017-08-11T08:29:10.422Z,23200
2017-08-11T08:30:12.114Z,23040
2017-08-11T08:31:13.806Z,25024
2017-08-11T08:32:15.480Z,28384
2017-08-11T08:33:17.126Z,30656
2017-08-11T08:34:18.865Z,29760
2017-08-11T08:35:20.511Z,27712
2017-08-11T08:36:22.294Z,29216
2017-08-11T08:37:23.974Z,32704
2017-08-11T08:38:25.685Z,36256
2017-08-11T08:39:27.292Z,39584
2017-08-11T08:40:28.946Z,41056
2017-08-11T08:41:30.663Z,41184
2017-08-11T08:42:32.322Z,40448
2017-08-11T08:43:34.009Z,39008
2017-08-11T08:44:35.695Z,36352
2017-08-11T08:45:37.319Z,34464
2017-08-11T08:46:38.950Z,34144
2017-08-11T08:47:40.526Z,32992
2017-08-11T08:48:42.218Z,32608
2017-08-11T08:49:43.831Z,31584
2017-08-11T08:50:45.606Z,29600
2017-08-11T08:51:47.216Z,28640
2017-08-11T08:52:48.902Z,28704
2017-08-11T08:53:50.496Z,28480
2017-08-11T08:54:52.079Z,27936
2017-08-11T08:55:53.689Z,27520
2017-08-11T08:56:55.328Z,29024
2017-08-11T08:57:56.992Z,32640
2017-08-11T08:58:58.763Z,35520
2017-08-11T09:00:00.334Z,38368
2017-08-11T09:01:02.027Z,40064
2017-08-11T09:02:03.564Z,43744
2017-08-11T09:03:05.271Z,42336
2017-08-11T09:04:06.848Z,42528
2017-08-11T09:05:08.553Z,40512
2017-08-11T09:06:10.098Z,39264
2017-08-11T09:07:11.674Z,33440
2017-08-11T09:08:13.211Z,30592
2017-08-11T09:09:14.765Z,31840
2017-08-11T09:10:16.245Z,33792
2017-08-11T09:11:17.851Z,35424
2017-08-11T09:12:19.324Z,35648
2017-08-11T09:13:20.850Z,33728
2017-08-11T09:14:22.352Z,32544
2017-08-11T09:15:23.862Z,33536
2017-08-11T09:16:25.357Z,35584
2017-08-11T09:17:26.907Z,37920
2017-08-11T09:18:28.366Z,41280
2017-08-11T09:19:30.085Z,45184
2017-08-11T09:20:31.605Z,43264
2017-08-11T09:21:33.214Z,36224
2017-08-11T09:22:35.012Z,33696
2017-08-11T09:23:36.674Z,32288
2017-08-11T09:24:38.168Z,28832
2017-08-11T09:25:39.730Z,26208
2017-08-11T09:26:41.192Z,23936
2017-08-11T09:27:42.738Z,22816
2017-08-11T09:28:44.258Z,22880
2017-08-11T09:29:45.832Z,22368
2017-08-11T09:30:47.360Z,20992
2017-08-11T09:31:48.856Z,19936
2017-08-11T09:32:50.317Z,18592
2017-08-11T09:33:51.857Z,17196
2017-08-11T09:34:53.339Z,16572
2017-08-11T09:35:54.924Z,17096
2017-08-11T09:36:56.430Z,18496
2017-08-11T09:37:58.026Z,20704
2017-08-11T09:38:59.592Z,23712
2017-08-11T09:40:01.268Z,26112
2017-08-11T09:41:02.768Z,27328
2017-08-11T09:42:04.353Z,27264
2017-08-11T09:43:05.881Z,26592
2017-08-11T09:44:07.424Z,26080
2017-08-11T09:45:08.956Z,27328
2017-08-11T09:46:10.510Z,30912
2017-08-11T09:47:11.988Z,35168
2017-08-11T09:48:13.603Z,38368
2017-08-11T09:49:15.094Z,39776
2017-08-11T09:50:16.791Z,40128
2017-08-11T09:51:18.313Z,37344
2017-08-11T09:52:19.777Z,33984
2017-08-11T09:53:21.283Z,32576
2017-08-11T09:54:22.820Z,33824
2017-08-11T09:55:24.239Z,35520
2017-08-11T09:56:25.816Z,37696
2017-08-11T09:57:27.267Z,40288
2017-08-11T09:58:28.881Z,41760
2017-08-11T09:59:30.422Z,34976
2017-08-11T10:00:32.015Z,29088
2017-08-11T10:01:33.498Z,24224
2017-08-11T10:02:35.056Z,21792
2017-08-11T10:03:36.572Z,22080
2017-08-11T10:04:38.107Z,23456
2017-08-11T10:05:39.707Z,25216
2017-08-11T10:06:41.249Z,26912
2017-08-11T10:07:42.719Z,28800
2017-08-11T10:08:44.213Z,30784
2017-08-11T10:09:45.721Z,32800
2017-08-11T10:10:47.242Z,33920
2017-08-11T10:11:48.764Z,34496
2017-08-11T10:12:50.329Z,35328
2017-08-11T10:13:51.813Z,37120
2017-08-11T10:14:53.395Z,39936
2017-08-11T10:15:54.824Z,43456
2017-08-11T10:16:56.401Z,49312
2017-08-11T10:17:57.982Z,49856
2017-08-11T10:18:59.530Z,45952
2017-08-11T10:20:01.006Z,44000
2017-08-11T10:21:02.529Z,43488
2017-08-11T10:22:03.987Z,42272
2017-08-11T10:23:05.507Z,40832
2017-08-11T10:24:06.954Z,43904
2017-08-11T10:25:08.510Z,50048
2017-08-11T10:26:09.997Z,57664
2017-08-11T10:27:11.477Z,59104
2017-08-11T10:28:12.970Z,47136
2017-08-11T10:29:14.470Z,40032
2017-08-11T10:30:15.942Z,32128
2017-08-11T10:31:17.443Z,26272
2017-08-11T10:32:18.904Z,23552
2017-08-11T10:33:20.736Z,22976
2017-08-11T10:34:21.884Z,23712
2017-08-11T10:35:23.482Z,24544
2017-08-11T10:36:25.001Z,25664
2017-08-11T10:37:26.510Z,26528
2017-08-11T10:38:28.039Z,26432
2017-08-11T10:39:29.617Z,25344
2017-08-11T10:40:31.109Z,23904
2017-08-11T10:41:32.692Z,21184
2017-08-11T10:42:34.171Z,20192
2017-08-11T10:43:35.649Z,19552
2017-08-11T10:44:37.146Z,20096
2017-08-11T10:45:38.674Z,20128
2017-08-11T10:46:40.204Z,19840
2017-08-11T10:47:41.765Z,19232
2017-08-11T10:48:43.257Z,19616
2017-08-11T10:49:44.786Z,20416
2017-08-11T10:50:46.232Z,21952
2017-08-11T10:51:47.780Z,24384
2017-08-11T10:52:49.295Z,27200
2017-08-11T10:53:50.802Z,29792
2017-08-11T10:54:52.251Z,32608
2017-08-11T10:55:53.750Z,34176
2017-08-11T10:56:55.190Z,34368
2017-08-11T10:57:56.764Z,33056
2017-08-11T10:58:58.322Z,32864
2017-08-11T10:59:59.878Z,32256
2017-08-11T11:01:01.313Z,32768
2017-08-11T11:02:02.801Z,32384
2017-08-11T11:03:04.296Z,29728
2017-08-11T11:04:05.871Z,25952
2017-08-11T11:05:07.320Z,22464
2017-08-11T11:06:09.230Z,20128
2017-08-11T11:07:11.882Z,18432
2017-08-11T11:08:13.426Z,17196
2017-08-11T11:09:14.867Z,16276
2017-08-11T11:10:16.410Z,15312
2017-08-11T11:11:17.851Z,14808
2017-08-11T11:12:19.762Z,14840
2017-08-11T11:13:21.240Z,15296
2017-08-11T11:14:22.763Z,15860
2017-08-11T11:15:24.248Z,16444
2017-08-11T11:16:25.751Z,16876
2017-08-11T11:17:27.254Z,16752
2017-08-11T11:18:28.760Z,15708
2017-08-11T11:19:30.291Z,14420
2017-08-11T11:20:31.918Z,13436
2017-08-11T11:21:33.381Z,12656
2017-08-11T11:22:34.995Z,12152
2017-08-11T11:23:36.469Z,12020
2017-08-11T11:24:38.004Z,12260
2017-08-11T11:25:39.511Z,12628
2017-08-11T11:26:41.052Z,13348
2017-08-11T11:27:42.563Z,14612
2017-08-11T11:28:44.134Z,16544
2017-08-11T11:29:45.635Z,18720
2017-08-11T11:30:48.575Z,19616
2017-08-11T11:31:50.018Z,21344
2017-08-11T11:32:52.554Z,23008
2017-08-11T11:33:54.015Z,24608
2017-08-11T11:34:55.612Z,26400
2017-08-11T11:35:57.083Z,27424
2017-08-11T11:36:58.607Z,27456
2017-08-11T11:38:00.087Z,25056
2017-08-11T11:39:01.586Z,21792
2017-08-11T11:40:03.074Z,20672
2017-08-11T11:41:04.566Z,21504
2017-08-11T11:42:06.184Z,22976
2017-08-11T11:43:07.776Z,24064
2017-08-11T11:44:09.247Z,25440
2017-08-11T11:45:10.876Z,27680
2017-08-11T11:46:12.329Z,30880
2017-08-11T11:47:13.841Z,33888
2017-08-11T11:48:15.255Z,33920
2017-08-11T11:49:16.858Z,31328
2017-08-11T11:50:18.666Z,28224
2017-08-11T11:51:20.219Z,26304
2017-08-11T11:52:21.696Z,25152
2017-08-11T11:53:23.168Z,25024
2017-08-11T11:54:24.631Z,26400
2017-08-11T11:55:26.161Z,28768
2017-08-11T11:56:27.603Z,30784
2017-08-11T11:57:29.138Z,32576
2017-08-11T11:58:30.578Z,28896
2017-08-11T11:59:32.077Z,27232
2017-08-11T12:00:33.545Z,25856
2017-08-11T12:01:35.011Z,24960
2017-08-11T12:02:36.483Z,24864
2017-08-11T12:03:38.021Z,25504
2017-08-11T12:04:39.507Z,26560
2017-08-11T12:05:41.001Z,28032
2017-08-11T12:06:42.469Z,29600
2017-08-11T12:07:43.981Z,31040
2017-08-11T12:08:45.460Z,31968
2017-08-11T12:09:46.968Z,33120
2017-08-11T12:10:48.416Z,34560
2017-08-11T12:11:49.949Z,36032
2017-08-11T12:12:51.419Z,37568
2017-08-11T12:13:53.021Z,38464
2017-08-11T12:14:54.501Z,38976
2017-08-11T12:15:55.995Z,38784
2017-08-11T12:16:57.436Z,38048
2017-08-11T12:17:59.033Z,37504
2017-08-11T12:19:00.548Z,37632
2017-08-11T12:20:02.076Z,38304
2017-08-11T12:21:03.609Z,39136
2017-08-11T12:22:05.152Z,40672
2017-08-11T12:23:06.597Z,42944
2017-08-11T12:24:08.182Z,45760
2017-08-11T12:25:09.694Z,49088
2017-08-11T12:26:11.250Z,53600
2017-08-11T12:27:12.733Z,56128
2017-08-11T12:28:14.251Z,59200
2017-08-11T12:29:15.949Z,62176
2017-08-11T12:30:17.638Z,65024
2017-08-11T12:31:19.454Z,69184
2017-08-11T12:32:21.063Z,67424
2017-08-11T12:33:22.575Z,59072
2017-08-11T12:34:24.040Z,58720
2017-08-11T12:35:25.497Z,52224
2017-08-11T12:36:26.994Z,50880
2017-08-11T12:37:28.515Z,49984
2017-08-11T12:38:30.146Z,49056
2017-08-11T12:39:31.602Z,48960
2017-08-11T12:40:33.148Z,49024
2017-08-11T12:41:34.608Z,49952
2017-08-11T12:42:36.173Z,48928
2017-08-11T12:43:37.624Z,48576
2017-08-11T12:44:39.185Z,49152
2017-08-11T12:45:40.687Z,49888
2017-08-11T12:46:42.228Z,50144
2017-08-11T12:47:43.713Z,49984
2017-08-11T12:48:45.390Z,48160
2017-08-11T12:49:46.832Z,44288
2017-08-11T12:50:48.394Z,40704
2017-08-11T12:51:49.891Z,37568
2017-08-11T12:52:51.471Z,34688
2017-08-11T12:53:53.001Z,32000
2017-08-11T12:54:54.640Z,30464
2017-08-11T12:55:56.157Z,29152
2017-08-11T12:56:57.719Z,29120
2017-08-11T12:57:59.204Z,29728
2017-08-11T12:59:00.779Z,30080
2017-08-11T13:00:02.358Z,30176
2017-08-11T13:01:04.001Z,33472
2017-08-11T13:02:05.505Z,34880
2017-08-11T13:03:07.024Z,36640
2017-08-11T13:04:08.570Z,37888
2017-08-11T13:05:10.258Z,38464
2017-08-11T13:06:11.820Z,37952
2017-08-11T13:07:13.500Z,37504
2017-08-11T13:08:14.970Z,36992
2017-08-11T13:09:16.545Z,35392
2017-08-11T13:10:18.155Z,32928
2017-08-11T13:11:19.775Z,30400
2017-08-11T13:12:21.514Z,27744
2017-08-11T13:13:23.088Z,25376
2017-08-11T13:14:24.599Z,23776
2017-08-11T13:15:26.221Z,22848
2017-08-11T13:16:27.702Z,22208
2017-08-11T13:17:29.306Z,21312
2017-08-11T13:18:30.842Z,20000
2017-08-11T13:19:32.461Z,18752
2017-08-11T13:20:33.974Z,17760
2017-08-11T13:21:35.602Z,17228
2017-08-11T13:22:37.155Z,17016
2017-08-11T13:23:38.852Z,16640
2017-08-11T13:24:40.346Z,15908
2017-08-11T13:25:41.919Z,14984
2017-08-11T13:26:43.407Z,14136
2017-08-11T13:27:45.024Z,13488
2017-08-11T13:28:46.513Z,13040
2017-08-11T13:29:48.052Z,12732
2017-08-11T13:30:49.637Z,12488
2017-08-11T13:31:51.239Z,12256
2017-08-11T13:32:52.747Z,12176
2017-08-11T13:33:54.316Z,12348
2017-08-11T13:34:55.822Z,12536
2017-08-11T13:35:57.393Z,12576
2017-08-11T13:36:58.969Z,12376
2017-08-11T13:38:00.569Z,12068
2017-08-11T13:39:02.076Z,11792
2017-08-11T13:40:03.710Z,11488
2017-08-11T13:41:05.289Z,11300
2017-08-11T13:42:06.835Z,11316
2017-08-11T13:43:08.341Z,11588
2017-08-11T13:44:09.925Z,11956
2017-08-11T13:45:11.453Z,12380
2017-08-11T13:46:13.418Z,12908
2017-08-11T13:47:14.916Z,13704
2017-08-11T13:48:16.454Z,14912
2017-08-11T13:49:18.182Z,16972
2017-08-11T13:50:19.821Z,20448
2017-08-11T13:51:21.369Z,25280
2017-08-11T13:52:22.881Z,33536
2017-08-11T13:53:24.379Z,47808
2017-08-11T13:54:26.027Z,50592
2017-08-11T13:55:27.525Z,59424
2017-08-11T13:56:29.186Z,64160
2017-08-11T13:57:30.668Z,68992
2017-08-11T13:58:32.214Z,77760
2017-08-11T13:59:33.760Z,79552
2017-08-11T14:00:35.314Z,83840
2017-08-11T14:01:36.786Z,79552
2017-08-11T14:02:38.419Z,80480
2017-08-11T14:03:39.957Z,69280
2017-08-11T14:04:41.494Z,61664
2017-08-11T14:05:42.987Z,57440
2017-08-11T14:06:44.545Z,53792
2017-08-11T14:07:46.038Z,54368
2017-08-11T14:08:47.834Z,51584
2017-08-11T14:09:49.328Z,48544
2017-08-11T14:10:50.915Z,44768
2017-08-11T14:11:52.425Z,39840
2017-08-11T14:12:53.911Z,34848
2017-08-11T14:13:55.441Z,30176
2017-08-11T14:14:56.923Z,26944
2017-08-11T14:15:58.425Z,24576
2017-08-11T14:16:59.930Z,22560
2017-08-11T14:18:01.355Z,20736
2017-08-11T14:19:02.824Z,19264
2017-08-11T14:20:04.364Z,18400
2017-08-11T14:21:05.978Z,17792
2017-08-11T14:22:07.468Z,16992
2017-08-11T14:23:08.943Z,16340
2017-08-11T14:24:10.484Z,15700
2017-08-11T14:25:11.947Z,15168
2017-08-11T14:26:13.478Z,14680
2017-08-11T14:27:14.960Z,14436
2017-08-11T14:28:16.483Z,14688
2017-08-11T14:29:18.036Z,15476
2017-08-11T14:30:19.575Z,16676
2017-08-11T14:31:21.169Z,18464
2017-08-11T14:32:23.418Z,20384
2017-08-11T14:33:24.983Z,22784
2017-08-11T14:34:26.598Z,25664
2017-08-11T14:35:28.202Z,28512
2017-08-11T14:36:29.707Z,30400
2017-08-11T14:37:31.270Z,31488
2017-08-11T14:38:32.866Z,32192
2017-08-11T14:39:34.397Z,33408
2017-08-11T14:40:35.944Z,34144
2017-08-11T14:41:37.529Z,34112
2017-08-11T14:42:39.055Z,33856
2017-08-11T14:43:40.665Z,33728
2017-08-11T14:44:42.207Z,34304
2017-08-11T14:45:43.732Z,35264
2017-08-11T14:46:45.210Z,36448
2017-08-11T14:47:46.833Z,37472
2017-08-11T14:48:48.378Z,37408
2017-08-11T14:49:49.933Z,37792
2017-08-11T14:50:51.435Z,38272
2017-08-11T14:51:53.000Z,39232
2017-08-11T14:52:54.607Z,40576
2017-08-11T14:53:56.209Z,41888
2017-08-11T14:54:57.782Z,43424
2017-08-11T14:55:59.406Z,43584
2017-08-11T14:57:00.930Z,46560
2017-08-11T14:58:02.523Z,45600
2017-08-11T14:59:04.024Z,46656
2017-08-11T15:00:05.743Z,46368
2017-08-11T15:01:07.243Z,45504
2017-08-11T15:02:08.892Z,43072
2017-08-11T15:03:10.999Z,39200
2017-08-11T15:04:56.928Z,33536
2017-08-11T15:05:58.357Z,30944
2017-08-11T15:06:59.854Z,28992
2017-08-11T15:08:01.246Z,27488
2017-08-11T15:09:03.671Z,26144
2017-08-11T15:10:05.056Z,24480
2017-08-11T15:11:06.540Z,22720
2017-08-11T15:12:07.939Z,20992
2017-08-11T15:13:09.417Z,19296
2017-08-11T15:14:10.813Z,17508
2017-08-11T15:15:12.302Z,16140
2017-08-11T15:16:13.744Z,14768
2017-08-11T15:17:15.185Z,13736
2017-08-11T15:18:16.581Z,12756
2017-08-11T15:19:18.101Z,11480
2017-08-11T15:20:19.496Z,10068
2017-08-11T15:21:20.971Z,8860
2017-08-11T15:22:22.356Z,7960
2017-08-11T15:23:23.830Z,7308
2017-08-11T15:24:25.220Z,6968
2017-08-11T15:25:26.712Z,6704
2017-08-11T15:26:28.105Z,6388
2017-08-11T15:27:29.591Z,6140
2017-08-11T15:28:30.990Z,6152
2017-08-11T15:29:32.496Z,6420
2017-08-11T15:30:33.876Z,6460
2017-08-11T15:31:35.355Z,6116
2017-08-11T15:32:36.846Z,5624
2017-08-11T15:33:38.395Z,5068
2017-08-11T15:34:39.782Z,4488
2017-08-11T15:35:42.318Z,3896
2017-08-11T15:36:43.824Z,3376
2017-08-11T15:37:46.255Z,2976
2017-08-11T15:38:47.694Z,2720
2017-08-11T15:39:49.177Z,2660
2017-08-11T15:40:50.923Z,2824
2017-08-11T15:41:52.404Z,3208
2017-08-11T15:42:53.784Z,3824
2017-08-11T15:43:55.206Z,4664
2017-08-11T15:44:56.592Z,5584
2017-08-11T15:45:58.178Z,6548
2017-08-11T15:46:59.653Z,7480
2017-08-11T15:48:01.437Z,8284
2017-08-11T15:49:02.940Z,9036
2017-08-11T15:50:04.479Z,9696
2017-08-11T15:51:06.020Z,10280
2017-08-11T15:52:07.456Z,10908
2017-08-11T15:53:08.935Z,11548
2017-08-11T15:54:10.463Z,12076
2017-08-11T15:55:11.962Z,12496
2017-08-11T15:56:13.424Z,12744
2017-08-11T15:57:14.820Z,12696
2017-08-11T15:58:16.311Z,12312
2017-08-11T15:59:17.826Z,11632
2017-08-11T16:00:19.326Z,10880
2017-08-11T16:01:20.715Z,10144
2017-08-11T16:02:22.174Z,9480
2017-08-11T16:03:23.861Z,8852
2017-08-11T16:04:25.432Z,8212
2017-08-11T16:05:26.971Z,7572
2017-08-11T16:06:28.590Z,7044
2017-08-11T16:07:30.132Z,6540
2017-08-11T16:08:31.962Z,6120
2017-08-11T16:09:33.724Z,5800
2017-08-11T16:10:36.562Z,5536
2017-08-11T16:11:38.117Z,5260
2017-08-11T16:12:39.713Z,5004
2017-08-11T16:13:41.327Z,4716
2017-08-11T16:14:42.906Z,4404
2017-08-11T16:15:44.440Z,4136
2017-08-11T16:16:46.893Z,3928
2017-08-11T16:17:48.550Z,3692
2017-08-11T16:18:50.186Z,3480
2017-08-11T16:19:51.672Z,3328
2017-08-11T16:20:53.267Z,3224
2017-08-11T16:21:54.881Z,3224
2017-08-11T16:22:56.615Z,3320
2017-08-11T16:23:58.251Z,3452
2017-08-11T16:24:59.874Z,3604
2017-08-11T16:26:01.476Z,3688
2017-08-11T16:27:03.159Z,3700
2017-08-11T16:28:04.870Z,3684
2017-08-11T16:29:06.655Z,3628
2017-08-11T16:30:08.436Z,3616
2017-08-11T16:31:10.144Z,3736
2017-08-11T16:32:11.643Z,4056
2017-08-11T16:33:13.313Z,4512
2017-08-11T16:34:14.986Z,5108
2017-08-11T16:35:16.471Z,5788
2017-08-11T16:36:18.225Z,6404
2017-08-11T16:37:19.807Z,6864
2017-08-11T16:38:21.319Z,7016
2017-08-11T16:39:23.121Z,6880
2017-08-11T16:40:24.777Z,6652
2017-08-11T16:41:26.902Z,6392
2017-08-11T16:42:28.874Z,6280
2017-08-11T16:43:30.741Z,6488
2017-08-11T16:44:33.042Z,7036
2017-08-11T16:45:35.215Z,7840
2017-08-11T16:46:37.143Z,8776
2017-08-11T16:47:38.868Z,9736
2017-08-11T16:48:40.517Z,10668
2017-08-11T16:49:43.167Z,11644
2017-08-11T16:50:44.988Z,12812
2017-08-11T16:51:46.720Z,14132
2017-08-11T16:52:48.376Z,15512
2017-08-11T16:53:49.978Z,17120
2017-08-11T16:54:51.658Z,18368
2017-08-11T16:55:53.324Z,19296
2017-08-11T16:56:55.101Z,20704
2017-08-11T16:57:56.927Z,20480
2017-08-11T16:58:59.104Z,21120
2017-08-11T17:00:01.380Z,19776
2017-08-11T17:01:03.401Z,19712
2017-08-11T17:02:05.752Z,20064
2017-08-11T17:03:08.006Z,20288
2017-08-11T17:04:09.920Z,20032
2017-08-11T17:05:11.428Z,19616
2017-08-11T17:06:13.049Z,19008
2017-08-11T17:07:15.233Z,18336
2017-08-11T17:08:16.902Z,17568
2017-08-11T17:09:19.169Z,16708
2017-08-11T17:10:21.222Z,15956
2017-08-11T17:11:23.160Z,15160
2017-08-11T17:12:25.075Z,14376
2017-08-11T17:13:26.678Z,13588
2017-08-11T17:14:28.917Z,12700
2017-08-11T17:15:30.623Z,11708
2017-08-11T17:16:32.178Z,10588
2017-08-11T17:17:33.817Z,9236
2017-08-11T17:18:35.867Z,7820
2017-08-11T17:19:37.480Z,6536
2017-08-11T17:20:39.152Z,5556
2017-08-11T17:21:41.452Z,4812
2017-08-11T17:22:43.082Z,4216
2017-08-11T17:23:44.730Z,3728
2017-08-11T17:24:46.357Z,3340
2017-08-11T17:25:47.903Z,3036
2017-08-11T17:26:49.506Z,2792
2017-08-11T17:27:51.140Z,2580
2017-08-11T17:28:52.874Z,2404
2017-08-11T17:29:54.748Z,2268
2017-08-11T17:30:56.945Z,2144
2017-08-11T17:31:58.774Z,2012
2017-08-11T17:33:00.793Z,1880
2017-08-11T17:34:02.576Z,1740
2017-08-11T17:35:04.164Z,1600
2017-08-11T17:36:05.784Z,1484
2017-08-11T17:37:07.712Z,1396
2017-08-11T17:38:09.226Z,1328
2017-08-11T17:39:11.082Z,1296
2017-08-11T17:40:12.813Z,1312
2017-08-11T17:41:14.562Z,1340
2017-08-11T17:42:16.236Z,1364
2017-08-11T17:43:18.347Z,1372
2017-08-11T17:44:19.998Z,1352
2017-08-11T17:45:21.879Z,1324
2017-08-11T17:46:23.556Z,1304
2017-08-11T17:47:25.321Z,1308
2017-08-11T17:48:26.904Z,1352
2017-08-11T17:49:28.734Z,1436
2017-08-11T17:50:30.399Z,1564
2017-08-11T17:51:32.202Z,1740
2017-08-11T17:52:33.865Z,1928
2017-08-11T17:53:35.794Z,2092
2017-08-11T17:54:37.272Z,2208
2017-08-11T17:55:38.895Z,2244
2017-08-11T17:56:40.455Z,2192
2017-08-11T17:57:42.020Z,2144
2017-08-11T17:58:43.668Z,2120
2017-08-11T17:59:45.704Z,2100
2017-08-11T18:00:47.367Z,2108
2017-08-11T18:01:49.120Z,2124
2017-08-11T18:02:51.277Z,2120
2017-08-11T18:03:53.101Z,2088
2017-08-11T18:04:54.763Z,2096
2017-08-11T18:05:56.408Z,2124
2017-08-11T18:06:58.039Z,2120
2017-08-11T18:08:00.041Z,2124
2017-08-11T18:09:01.806Z,2124
2017-08-11T18:10:04.064Z,2096
2017-08-11T18:11:07.904Z,2048
2017-08-11T18:12:09.364Z,2008
2017-08-11T18:13:11.031Z,1964
2017-08-11T18:14:12.666Z,1900
2017-08-11T18:15:14.212Z,1828
2017-08-11T18:16:15.875Z,1760
2017-08-11T18:17:17.479Z,1688
2017-08-11T18:18:19.192Z,1632
2017-08-11T18:19:21.930Z,1580
2017-08-11T18:20:23.652Z,1532
2017-08-11T18:21:25.345Z,1496
2017-08-11T18:22:27.116Z,1452
2017-08-11T18:23:28.796Z,1388
2017-08-11T18:24:30.551Z,1324
2017-08-11T18:25:32.282Z,1268
2017-08-11T18:26:34.161Z,1212
2017-08-11T18:27:35.937Z,1160
2017-08-11T18:28:37.706Z,1112
2017-08-11T18:29:41.788Z,1084
2017-08-11T18:30:43.783Z,1068
2017-08-11T18:31:45.480Z,1056
2017-08-11T18:32:47.366Z,1036
2017-08-11T18:33:48.960Z,1016
2017-08-11T18:34:50.682Z,996
2017-08-11T18:35:52.264Z,980
2017-08-11T18:36:54.113Z,972
2017-08-11T18:37:55.671Z,960
2017-08-11T18:38:57.365Z,948
2017-08-11T18:39:58.893Z,932
2017-08-11T18:41:00.613Z,912
2017-08-11T18:42:02.347Z,904
2017-08-11T18:43:04.083Z,900
2017-08-11T18:44:05.811Z,904
2017-08-11T18:45:07.578Z,912
2017-08-11T18:46:09.201Z,932
2017-08-11T18:47:10.781Z,980
2017-08-11T18:48:12.340Z,1044
2017-08-11T18:49:13.907Z,1084
2017-08-11T18:50:15.620Z,1080
2017-08-11T18:51:17.281Z,1048
2017-08-11T18:52:18.910Z,992